createdAt,value
2022-11-16T00:00:05.444Z,978.0007
2022-11-16T00:01:00.507Z,977.9512
2022-11-16T00:02:00.623Z,977.8663
2022-11-16T00:03:00.773Z,977.9423
2022-11-16T00:04:00.905Z,977.9269
2022-11-16T00:05:01.054Z,977.9835
2022-11-16T00:06:01.252Z,977.9269
2022-11-16T00:07:00.436Z,977.7919
2022-11-16T00:08:00.505Z,977.8768
2022-11-16T00:09:00.651Z,977.9269
2022-11-16T00:10:00.785Z,977.8137
2022-11-16T00:11:00.970Z,977.9269
2022-11-16T00:12:01.086Z,977.7937
2022-11-16T00:13:01.231Z,977.8091
2022-11-16T00:14:00.371Z,977.9229
2022-11-16T00:15:00.530Z,977.9158
2022-11-16T00:16:00.708Z,977.8875
2022-11-16T00:17:00.821Z,977.7898
2022-11-16T00:18:00.983Z,977.6766
2022-11-16T00:19:01.122Z,977.6766
2022-11-16T00:20:00.280Z,977.7049
2022-11-16T00:21:00.451Z,977.6
2022-11-16T00:22:00.581Z,977.8097
2022-11-16T00:23:00.725Z,977.6129
2022-11-16T00:24:00.871Z,977.6
2022-11-16T00:25:01.019Z,977.7055
2022-11-16T00:26:01.185Z,977.5158
2022-11-16T00:27:00.301Z,977.6289
2022-11-16T00:28:00.470Z,977.5871
2022-11-16T00:29:00.614Z,977.7203
2022-11-16T00:30:00.751Z,977.9749
2022-11-16T00:31:00.919Z,977.6533
2022-11-16T00:32:01.046Z,977.5073
2022-11-16T00:33:01.184Z,977.6533
2022-11-16T00:34:00.314Z,977.6533
2022-11-16T00:35:00.473Z,977.5967
2022-11-16T00:36:00.625Z,977.7203
2022-11-16T00:37:00.797Z,977.6154
2022-11-16T00:38:00.926Z,977.7203
2022-11-16T00:39:01.069Z,977.544
2022-11-16T00:40:01.211Z,977.5782
2022-11-16T00:41:00.364Z,977.62
2022-11-16T00:42:00.520Z,977.62
2022-11-16T00:43:00.669Z,977.6966
2022-11-16T00:44:00.815Z,977.5068
2022-11-16T00:45:00.946Z,977.5191
2022-11-16T00:46:01.110Z,977.5345
2022-11-16T00:47:01.262Z,977.5216
2022-11-16T00:48:00.844Z,977.5022
2022-11-16T00:49:00.545Z,977.5871
2022-11-16T00:50:00.699Z,977.4739
2022-11-16T00:51:00.832Z,977.6637
2022-11-16T00:52:01.020Z,977.4739
2022-11-16T00:53:01.131Z,977.6289
2022-11-16T00:54:00.262Z,977.4457
2022-11-16T00:55:00.429Z,977.7203
2022-11-16T00:56:00.568Z,977.4835
2022-11-16T00:57:00.745Z,977.4417
2022-11-16T00:58:00.859Z,977.407
2022-11-16T00:59:01.025Z,977.4134
2022-11-16T01:00:01.171Z,977.4919
2022-11-16T01:01:00.373Z,977.7768
2022-11-16T01:02:00.465Z,977.4353
2022-11-16T01:03:00.615Z,977.479
2022-11-16T01:04:00.749Z,977.4153
2022-11-16T01:05:00.906Z,977.4307
2022-11-16T01:06:01.031Z,977.2617
2022-11-16T01:07:01.218Z,977.2829
2022-11-16T01:08:00.326Z,977.5285
2022-11-16T01:09:00.471Z,977.3742
2022-11-16T01:10:00.605Z,977.4719
2022-11-16T01:11:00.773Z,977.3871
2022-11-16T01:12:00.918Z,977.4353
2022-11-16T01:13:01.083Z,977.4353
2022-11-16T01:14:01.223Z,977.4134
2022-11-16T01:15:00.366Z,977.3787
2022-11-16T01:16:00.536Z,977.3639
2022-11-16T01:17:00.657Z,977.3421
2022-11-16T01:18:00.807Z,977.1814
2022-11-16T01:19:00.955Z,977.3022
2022-11-16T01:20:01.101Z,977.4925
2022-11-16T01:21:01.249Z,977.1891
2022-11-16T01:22:00.399Z,977.1891
2022-11-16T01:23:00.546Z,977.3787
2022-11-16T01:24:00.690Z,977.2662
2022-11-16T01:25:00.864Z,977.3022
2022-11-16T01:26:01.004Z,977.2675
2022-11-16T01:27:01.124Z,977.1132
2022-11-16T01:28:00.287Z,977.1132
2022-11-16T01:29:00.419Z,977.1486
2022-11-16T01:30:00.565Z,977.2328
2022-11-16T01:31:00.718Z,977.092
2022-11-16T01:32:00.852Z,977.092
2022-11-16T01:33:01.006Z,977.0978
2022-11-16T01:34:01.165Z,977.1608
2022-11-16T01:35:00.313Z,977.0695
2022-11-16T01:36:00.472Z,977.1981
2022-11-16T01:37:00.602Z,977.1203
2022-11-16T01:38:00.763Z,977.0001
2022-11-16T01:39:00.917Z,977.0631
2022-11-16T01:40:01.079Z,977.1042
2022-11-16T01:41:01.227Z,977.0759
2022-11-16T01:42:00.359Z,976.9133
2022-11-16T01:43:00.495Z,977.0213
2022-11-16T01:44:00.653Z,976.9647
2022-11-16T01:45:00.804Z,976.9776
2022-11-16T01:46:00.947Z,976.8316
2022-11-16T01:47:01.134Z,976.7994
2022-11-16T01:48:01.299Z,976.637
2022-11-16T01:49:00.384Z,976.7193
2022-11-16T01:50:00.510Z,976.6536
2022-11-16T01:51:00.672Z,976.561
2022-11-16T01:52:00.825Z,976.7064
2022-11-16T01:53:00.964Z,976.7373
2022-11-16T01:54:01.111Z,976.597
2022-11-16T01:56:00.370Z,976.7659
2022-11-16T01:57:00.508Z,976.7595
2022-11-16T01:58:00.659Z,976.7685
2022-11-16T01:59:00.788Z,976.7685
2022-11-16T02:00:00.963Z,976.702
2022-11-16T02:01:01.199Z,976.5804
2022-11-16T02:02:00.262Z,976.6563
2022-11-16T02:03:00.423Z,976.4541
2022-11-16T02:04:00.572Z,976.6754
2022-11-16T02:06:00.935Z,976.6007
2022-11-16T02:07:01.090Z,976.6007
2022-11-16T02:08:01.143Z,976.7468
2022-11-16T02:09:00.301Z,976.7468
2022-11-16T02:10:00.449Z,976.448
2022-11-16T02:11:00.599Z,976.7786
2022-11-16T02:12:00.767Z,976.7468
2022-11-16T02:13:00.903Z,976.566
2022-11-16T02:14:01.054Z,976.6445
2022-11-16T02:15:01.189Z,976.8044
2022-11-16T02:16:00.346Z,976.7166
2022-11-16T02:17:00.518Z,976.5467
2022-11-16T02:18:00.640Z,976.6883
2022-11-16T02:19:00.798Z,976.6188
2022-11-16T02:20:00.953Z,976.6188
2022-11-16T02:21:01.092Z,976.6188
2022-11-16T02:22:01.264Z,976.6188
2022-11-16T02:23:00.396Z,976.3601
2022-11-16T02:24:00.538Z,976.6471
2022-11-16T02:25:00.706Z,976.5621
2022-11-16T02:26:00.843Z,976.5055
2022-11-16T02:27:01.006Z,976.4869
2022-11-16T02:28:01.149Z,976.5621
2022-11-16T02:29:00.298Z,976.6188
2022-11-16T02:30:00.457Z,976.5621
2022-11-16T02:31:00.604Z,976.5338
2022-11-16T02:32:00.755Z,976.5055
2022-11-16T02:33:00.902Z,976.5621
2022-11-16T02:34:01.050Z,976.4489
2022-11-16T02:35:01.228Z,976.6716
2022-11-16T02:36:00.344Z,976.467
2022-11-16T02:37:00.513Z,976.5583
2022-11-16T02:38:00.630Z,976.4451
2022-11-16T02:39:00.787Z,976.4451
2022-11-16T02:41:01.163Z,976.4387
2022-11-16T02:42:01.227Z,976.4889
2022-11-16T02:43:00.366Z,976.3254
2022-11-16T02:44:00.516Z,976.4734
2022-11-16T02:45:00.666Z,976.5583
2022-11-16T02:46:00.832Z,976.4323
2022-11-16T02:47:00.994Z,976.4039
2022-11-16T02:48:01.126Z,976.5674
2022-11-16T02:49:00.286Z,976.4838
2022-11-16T02:50:00.446Z,976.5327
2022-11-16T02:51:00.588Z,976.4825
2022-11-16T02:52:00.757Z,976.3692
2022-11-16T02:53:00.895Z,976.3756
2022-11-16T02:54:01.053Z,976.4889
2022-11-16T02:55:01.195Z,976.3911
2022-11-16T02:56:00.334Z,976.3988
2022-11-16T02:57:00.477Z,976.5687
2022-11-16T02:58:00.636Z,976.3705
2022-11-16T02:59:00.767Z,976.2509
2022-11-16T03:00:00.888Z,976.449
2022-11-16T03:01:01.130Z,976.3796
2022-11-16T03:02:01.183Z,976.3037
2022-11-16T03:03:00.329Z,976.2407
2022-11-16T03:04:00.498Z,976.2754
2022-11-16T03:05:00.639Z,976.4581
2022-11-16T03:06:00.768Z,976.2316
2022-11-16T03:07:00.996Z,976.3449
2022-11-16T03:08:01.071Z,976.2754
2022-11-16T03:09:01.217Z,976.4671
2022-11-16T03:10:00.357Z,976.5238
2022-11-16T03:11:00.486Z,976.3842
2022-11-16T03:12:00.674Z,976.4563
2022-11-16T03:13:00.793Z,976.2454
2022-11-16T03:14:00.950Z,976.3804
2022-11-16T03:15:01.097Z,976.246
2022-11-16T03:16:01.238Z,976.2865
2022-11-16T03:17:00.415Z,976.554
2022-11-16T03:18:00.549Z,976.3869
2022-11-16T03:19:00.689Z,976.3322
2022-11-16T03:20:00.845Z,976.2473
2022-11-16T03:21:00.993Z,976.3322
2022-11-16T03:22:01.156Z,976.2538
2022-11-16T03:23:00.288Z,976.3875
2022-11-16T03:24:00.439Z,976.2737
2022-11-16T03:25:00.581Z,976.2538
2022-11-16T03:26:00.735Z,976.2558
2022-11-16T03:27:00.898Z,976.0931
2022-11-16T03:28:01.048Z,976.2191
2022-11-16T03:29:01.174Z,976.1803
2022-11-16T03:30:00.322Z,976.1733
2022-11-16T03:31:00.462Z,976.237
2022-11-16T03:32:00.613Z,976.1302
2022-11-16T03:33:00.773Z,976.1295
2022-11-16T03:34:00.909Z,976.2144
2022-11-16T03:35:01.043Z,976.145
2022-11-16T03:36:01.193Z,976.1642
2022-11-16T03:37:00.340Z,976.1056
2022-11-16T03:38:00.489Z,976.2792
2022-11-16T03:39:00.646Z,976.1858
2022-11-16T03:40:00.769Z,976.256
2022-11-16T03:41:00.915Z,976.2991
2022-11-16T03:42:01.062Z,976.3988
2022-11-16T03:43:01.215Z,976.2573
2022-11-16T03:44:00.379Z,976.4838
2022-11-16T03:45:00.505Z,976.4838
2022-11-16T03:46:00.661Z,976.4838
2022-11-16T03:47:00.803Z,976.4838
2022-11-16T03:48:00.959Z,976.3422
2022-11-16T03:49:01.236Z,976.5674
2022-11-16T03:51:00.360Z,976.6471
2022-11-16T03:52:00.498Z,976.5621
2022-11-16T03:53:00.643Z,976.6188
2022-11-16T03:54:00.809Z,976.53
2022-11-16T03:55:00.950Z,976.4194
2022-11-16T03:56:01.097Z,976.6021
2022-11-16T03:57:01.241Z,976.3537
2022-11-16T03:58:00.392Z,976.3601
2022-11-16T03:59:00.546Z,976.4825
2022-11-16T04:00:00.711Z,976.4838
2022-11-16T04:01:00.850Z,976.2573
2022-11-16T04:02:00.972Z,976.3139
2022-11-16T04:03:01.123Z,976.3429
2022-11-16T04:04:00.300Z,976.4838
2022-11-16T04:05:00.439Z,976.4838
2022-11-16T04:06:00.560Z,976.449
2022-11-16T04:07:00.728Z,976.2792
2022-11-16T04:08:00.855Z,976.2728
2022-11-16T04:09:01.021Z,976.3358
2022-11-16T04:10:01.193Z,976.3641
2022-11-16T04:11:00.317Z,976.1814
2022-11-16T04:12:00.465Z,976.3796
2022-11-16T04:13:00.614Z,976.3422
2022-11-16T04:14:04.087Z,976.144
2022-11-16T04:15:00.945Z,976.2991
2022-11-16T04:16:01.058Z,976.2007
2022-11-16T04:17:01.201Z,976.1724
2022-11-16T04:18:00.346Z,976.171
2022-11-16T04:19:00.477Z,976.1838
2022-11-16T04:20:00.652Z,976.2604
2022-11-16T04:21:00.770Z,976.2604
2022-11-16T04:22:00.917Z,976.3922
2022-11-16T04:23:01.065Z,976.2533
2022-11-16T04:24:01.215Z,976.2186
2022-11-16T04:25:00.371Z,976.2533
2022-11-16T04:26:00.507Z,976.3382
2022-11-16T04:27:00.663Z,976.3382
2022-11-16T04:28:00.806Z,976.2186
2022-11-16T04:29:00.946Z,976.3922
2022-11-16T04:30:01.108Z,976.2533
2022-11-16T04:31:01.242Z,976.2186
2022-11-16T04:32:00.387Z,976.5055
2022-11-16T04:33:00.538Z,976.3922
2022-11-16T04:34:00.698Z,976.3922
2022-11-16T04:35:00.859Z,976.2604
2022-11-16T04:36:01.014Z,976.3922
2022-11-16T04:37:01.136Z,976.2533
2022-11-16T04:38:00.288Z,976.2604
2022-11-16T04:39:00.437Z,976.194
2022-11-16T04:40:00.582Z,976.2004
2022-11-16T04:41:00.744Z,976.3922
2022-11-16T04:42:00.912Z,976.4617
2022-11-16T04:43:01.041Z,976.4965
2022-11-16T04:44:01.201Z,976.2635
2022-11-16T04:45:00.357Z,976.4617
2022-11-16T04:46:00.499Z,976.4617
2022-11-16T04:47:00.676Z,976.2068
2022-11-16T04:48:00.805Z,976.2287
2022-11-16T04:49:00.949Z,976.4617
2022-11-16T04:50:01.110Z,976.4617
2022-11-16T04:51:01.254Z,976.2281
2022-11-16T04:52:00.419Z,976.2564
2022-11-16T04:53:00.556Z,976.4617
2022-11-16T04:54:00.707Z,976.427
2022-11-16T04:55:00.853Z,976.3329
2022-11-16T04:56:01.227Z,976.311
2022-11-16T04:57:01.173Z,976.1978
2022-11-16T04:58:00.306Z,976.2453
2022-11-16T04:59:00.461Z,976.4153
2022-11-16T05:00:00.596Z,976.2453
2022-11-16T05:01:00.804Z,976.3219
2022-11-16T05:02:00.908Z,976.4551
2022-11-16T05:03:01.946Z,976.3701
2022-11-16T05:04:01.199Z,976.4113
2022-11-16T05:05:00.357Z,976.4113
2022-11-16T05:06:00.531Z,976.4673
2022-11-16T05:07:00.774Z,976.354
2022-11-16T05:08:00.793Z,976.468
2022-11-16T05:09:00.952Z,976.3547
2022-11-16T05:10:01.091Z,976.3135
2022-11-16T05:11:01.261Z,976.4551
2022-11-16T05:12:00.424Z,976.3985
2022-11-16T05:13:00.534Z,976.3914
2022-11-16T05:14:00.683Z,976.4487
2022-11-16T05:15:00.847Z,976.4204
2022-11-16T05:16:00.987Z,976.3219
2022-11-16T05:17:01.214Z,976.3219
2022-11-16T05:18:00.298Z,976.1758
2022-11-16T05:19:00.451Z,976.3458
2022-11-16T05:20:00.595Z,976.2956
2022-11-16T05:21:00.758Z,976.4089
2022-11-16T05:22:00.906Z,976.302
2022-11-16T05:23:01.056Z,976.3869
2022-11-16T05:24:01.186Z,976.3785
2022-11-16T05:25:00.333Z,976.4153
2022-11-16T05:26:00.472Z,976.4153
2022-11-16T05:27:00.622Z,976.3046
2022-11-16T05:28:00.796Z,976.5312
2022-11-16T05:29:00.915Z,976.3265
2022-11-16T05:30:01.068Z,976.4617
2022-11-16T05:31:01.208Z,976.4617
2022-11-16T05:32:00.360Z,976.4617
2022-11-16T05:33:00.519Z,976.4617
2022-11-16T05:34:00.683Z,976.1998
2022-11-16T05:35:00.808Z,976.2699
2022-11-16T05:36:00.953Z,976.2763
2022-11-16T05:37:01.112Z,976.311
2022-11-16T05:38:01.250Z,976.3394
2022-11-16T05:39:00.414Z,976.248
2022-11-16T05:40:00.529Z,976.311
2022-11-16T05:41:00.680Z,976.3046
2022-11-16T05:42:00.820Z,976.311
2022-11-16T05:43:00.971Z,976.6355
2022-11-16T05:44:01.148Z,976.311
2022-11-16T05:45:00.280Z,976.4024
2022-11-16T05:46:00.421Z,976.4719
2022-11-16T05:47:00.570Z,976.3869
2022-11-16T05:48:00.722Z,976.6702
2022-11-16T05:49:00.884Z,976.4436
2022-11-16T05:50:01.013Z,976.3785
2022-11-16T05:51:01.178Z,976.5202
2022-11-16T05:52:00.313Z,976.5202
2022-11-16T05:53:00.460Z,976.5202
2022-11-16T05:54:00.636Z,976.4153
2022-11-16T05:55:00.771Z,976.6702
2022-11-16T05:56:00.996Z,976.3741
2022-11-16T05:57:01.077Z,976.6007
2022-11-16T05:58:01.214Z,976.6985
2022-11-16T05:59:00.380Z,976.7468
2022-11-16T06:00:00.528Z,976.6985
2022-11-16T06:01:00.654Z,976.6702
2022-11-16T06:02:00.802Z,976.6355
2022-11-16T06:03:01.002Z,976.8868
2022-11-16T06:04:01.097Z,976.5943
2022-11-16T06:05:01.269Z,976.566
2022-11-16T06:06:00.384Z,976.6792
2022-11-16T06:07:00.607Z,976.6007
2022-11-16T06:08:00.692Z,976.6355
2022-11-16T06:09:00.849Z,976.6921
2022-11-16T06:10:01.020Z,976.6355
2022-11-16T06:11:01.162Z,976.6702
2022-11-16T06:12:00.295Z,976.566
2022-11-16T06:13:00.437Z,976.6355
2022-11-16T06:14:00.590Z,976.7468
2022-11-16T06:15:00.750Z,976.5401
2022-11-16T06:16:00.924Z,976.638
2022-11-16T06:17:01.039Z,976.609
2022-11-16T06:18:01.188Z,976.5246
2022-11-16T06:19:00.350Z,976.5523
2022-11-16T06:20:00.484Z,976.5311
2022-11-16T06:21:00.659Z,976.5942
2022-11-16T06:22:00.785Z,976.5722
2022-11-16T06:23:00.929Z,976.4808
2022-11-16T06:24:01.083Z,976.7606
2022-11-16T06:25:01.233Z,976.5722
2022-11-16T06:26:00.406Z,976.6134
2022-11-16T06:27:00.515Z,976.5851
2022-11-16T06:28:05.238Z,976.6617
2022-11-16T06:29:00.814Z,976.7927
2022-11-16T06:30:00.969Z,976.6894
2022-11-16T06:31:01.124Z,976.6611
2022-11-16T06:32:00.255Z,976.576
2022-11-16T06:33:00.413Z,976.6044
2022-11-16T06:34:00.581Z,976.576
2022-11-16T06:35:00.708Z,976.681
2022-11-16T06:36:00.848Z,976.5393
2022-11-16T06:37:00.998Z,976.7229
2022-11-16T06:38:01.159Z,976.7612
2022-11-16T06:39:00.324Z,976.7612
2022-11-16T06:40:00.452Z,976.7138
2022-11-16T06:41:00.605Z,976.8146
2022-11-16T06:42:00.739Z,976.7579
2022-11-16T06:43:00.901Z,976.8204
2022-11-16T06:44:01.071Z,976.5952
2022-11-16T06:45:01.192Z,976.7836
2022-11-16T06:46:00.357Z,976.6803
2022-11-16T06:47:00.491Z,976.8184
2022-11-16T06:48:00.635Z,976.7463
2022-11-16T06:49:00.787Z,976.6931
2022-11-16T06:50:00.954Z,976.7463
2022-11-16T06:51:01.068Z,976.8796
2022-11-16T06:52:01.220Z,976.5862
2022-11-16T06:53:00.363Z,976.7195
2022-11-16T06:54:00.519Z,976.7195
2022-11-16T06:55:00.688Z,976.6429
2022-11-16T06:56:00.805Z,976.6803
2022-11-16T06:57:00.958Z,976.5385
2022-11-16T06:58:01.108Z,976.5669
2022-11-16T06:59:01.256Z,976.5166
2022-11-16T07:00:00.428Z,976.6803
2022-11-16T07:01:00.547Z,976.6719
2022-11-16T07:02:00.860Z,976.7527
2022-11-16T07:03:00.861Z,976.7527
2022-11-16T07:04:01.017Z,976.7195
2022-11-16T07:05:03.695Z,976.7379
2022-11-16T07:06:00.316Z,976.6345
2022-11-16T07:07:00.508Z,976.7514
2022-11-16T07:08:00.597Z,976.7514
2022-11-16T07:09:00.754Z,976.6828
2022-11-16T07:10:00.904Z,976.7304
2022-11-16T07:11:04.156Z,976.7021
2022-11-16T07:12:01.158Z,976.7085
2022-11-16T07:13:00.309Z,976.6299
2022-11-16T07:14:00.447Z,976.7059
2022-11-16T07:15:00.625Z,976.6904
2022-11-16T07:16:00.744Z,976.7726
2022-11-16T07:17:05.179Z,976.6975
2022-11-16T07:18:01.032Z,976.6885
2022-11-16T07:19:01.183Z,976.7764
2022-11-16T07:20:00.346Z,976.6446
2022-11-16T07:21:00.478Z,976.6446
2022-11-16T07:22:00.637Z,976.7213
2022-11-16T07:23:00.771Z,976.788
2022-11-16T07:24:00.917Z,976.8435
2022-11-16T07:25:01.093Z,976.8435
2022-11-16T07:26:01.211Z,976.6052
2022-11-16T07:27:00.354Z,976.9202
2022-11-16T07:28:00.500Z,976.6658
2022-11-16T07:29:00.648Z,976.6593
2022-11-16T07:30:00.810Z,976.9157
2022-11-16T07:31:00.944Z,976.7454
2022-11-16T07:32:01.141Z,976.8021
2022-11-16T07:33:01.251Z,976.6986
2022-11-16T07:34:00.390Z,976.6548
2022-11-16T07:35:00.577Z,976.7031
2022-11-16T07:36:00.695Z,976.5193
2022-11-16T07:37:00.835Z,976.6747
2022-11-16T07:38:00.999Z,976.5741
2022-11-16T07:39:01.152Z,976.6508
2022-11-16T07:40:00.319Z,976.6508
2022-11-16T07:41:00.452Z,976.5657
2022-11-16T07:42:00.582Z,976.5373
2022-11-16T07:43:00.738Z,976.5218
2022-11-16T07:44:00.887Z,976.6069
2022-11-16T07:45:01.054Z,976.5566
2022-11-16T07:46:30.296Z,976.6263
2022-11-16T07:47:00.334Z,976.6043
2022-11-16T07:48:00.492Z,976.5391
2022-11-16T07:49:00.647Z,976.3972
2022-11-16T07:50:00.801Z,976.552
2022-11-16T07:51:00.964Z,976.3533
2022-11-16T07:52:01.085Z,976.5784
2022-11-16T07:53:01.244Z,976.4145
2022-11-16T07:54:00.395Z,976.6481
2022-11-16T07:55:00.536Z,976.4835
2022-11-16T07:56:00.697Z,976.5467
2022-11-16T07:57:00.848Z,976.639
2022-11-16T07:58:00.983Z,976.355
2022-11-16T07:59:01.122Z,976.5093
2022-11-16T08:00:00.265Z,976.4724
2022-11-16T08:01:00.410Z,976.5073
2022-11-16T08:02:00.678Z,976.6467
2022-11-16T08:03:00.702Z,976.4478
2022-11-16T08:04:00.858Z,976.6467
2022-11-16T08:05:01.006Z,976.6467
2022-11-16T08:06:01.146Z,976.7164
2022-11-16T08:07:00.409Z,976.553
2022-11-16T08:08:00.437Z,976.4394
2022-11-16T08:09:00.595Z,976.4678
2022-11-16T08:10:00.815Z,976.6014
2022-11-16T08:11:00.894Z,976.3458
2022-11-16T08:12:01.064Z,976.3671
2022-11-16T08:13:01.187Z,976.2889
2022-11-16T08:14:00.352Z,976.3018
2022-11-16T08:15:00.485Z,976.3742
2022-11-16T08:16:00.626Z,976.2605
2022-11-16T08:17:00.808Z,976.3173
2022-11-16T08:18:00.918Z,976.3173
2022-11-16T08:19:01.068Z,976.2889
2022-11-16T08:20:01.206Z,976.387
2022-11-16T08:21:00.360Z,976.2863
2022-11-16T08:22:00.529Z,976.3282
2022-11-16T08:23:00.658Z,976.2203
2022-11-16T08:24:00.798Z,976.2998
2022-11-16T08:25:00.966Z,976.2643
2022-11-16T08:26:01.109Z,976.3127
2022-11-16T08:27:01.271Z,976.2274
2022-11-16T08:28:00.406Z,976.2623
2022-11-16T08:29:00.551Z,976.2339
2022-11-16T08:30:00.693Z,976.2119
2022-11-16T08:31:00.836Z,976.1899
2022-11-16T08:32:01.001Z,976.1744
2022-11-16T08:33:01.155Z,976.2228
2022-11-16T08:34:00.331Z,976.2512
2022-11-16T08:35:00.442Z,976.1148
2022-11-16T08:36:00.581Z,976.348
2022-11-16T08:37:00.747Z,976.078
2022-11-16T08:38:00.882Z,976.2046
2022-11-16T08:39:01.038Z,976.1406
2022-11-16T08:40:01.180Z,976.2174
2022-11-16T08:41:00.332Z,976.2174
2022-11-16T08:42:00.496Z,976.2523
2022-11-16T08:43:00.621Z,976.1515
2022-11-16T08:44:00.778Z,976.322
2022-11-16T08:45:00.931Z,976.0506
2022-11-16T08:46:01.069Z,976.0506
2022-11-16T08:47:01.244Z,976.1146
2022-11-16T08:48:03.985Z,976.1972
2022-11-16T08:49:00.524Z,976.0835
2022-11-16T08:50:00.675Z,976.2256
2022-11-16T08:51:16.911Z,976.1532
2022-11-16T08:52:00.988Z,976.1881
2022-11-16T08:53:01.110Z,976.0659
2022-11-16T08:54:00.261Z,976.3069
2022-11-16T08:55:00.409Z,976.1492
2022-11-16T08:56:00.579Z,975.9914
2022-11-16T08:57:00.726Z,975.9758
2022-11-16T08:58:00.894Z,975.9887
2022-11-16T08:59:01.015Z,975.8658
2022-11-16T09:00:01.158Z,975.9867
2022-11-16T09:01:00.316Z,975.9427
2022-11-16T09:02:00.567Z,975.9711
2022-11-16T09:03:00.614Z,975.9427
2022-11-16T09:04:00.757Z,975.9142
2022-11-16T09:05:00.899Z,976.0687
2022-11-16T09:06:01.051Z,975.9264
2022-11-16T09:07:01.259Z,975.9897
2022-11-16T09:08:00.366Z,976.0233
2022-11-16T09:09:00.500Z,975.9948
2022-11-16T09:10:00.649Z,975.9508
2022-11-16T09:11:00.794Z,975.9857
2022-11-16T09:12:00.936Z,975.9159
2022-11-16T09:13:01.118Z,976.0711
2022-11-16T09:14:01.244Z,976.1913
2022-11-16T09:15:00.397Z,976.0775
2022-11-16T09:16:00.543Z,976.0884
2022-11-16T09:17:00.686Z,976.0664
2022-11-16T09:18:00.861Z,976.0728
2022-11-16T09:19:00.990Z,976.0003
2022-11-16T09:20:01.145Z,976.184
2022-11-16T09:21:00.281Z,976.0203
2022-11-16T09:22:00.429Z,976.0752
2022-11-16T09:23:00.579Z,975.9742
2022-11-16T09:24:00.714Z,976.101
2022-11-16T09:25:00.870Z,976.0569
2022-11-16T09:26:01.014Z,976.099
2022-11-16T09:27:01.155Z,975.8989
2022-11-16T09:28:00.307Z,976.1305
2022-11-16T09:29:00.443Z,975.9312
2022-11-16T09:30:00.593Z,976.0515
2022-11-16T09:31:00.778Z,976.0644
2022-11-16T09:32:00.893Z,975.9006
2022-11-16T09:33:01.126Z,976.056
2022-11-16T09:34:01.205Z,975.8701
2022-11-16T09:35:00.360Z,975.9044
2022-11-16T09:36:00.502Z,976.0363
2022-11-16T09:37:00.646Z,975.9508
2022-11-16T09:38:00.787Z,975.9508
2022-11-16T09:39:28.949Z,976.0363
2022-11-16T09:40:01.089Z,975.8996
2022-11-16T09:41:01.237Z,976.0136
2022-11-16T09:42:00.379Z,976.0557
2022-11-16T09:43:00.520Z,975.9766
2022-11-16T09:44:00.684Z,976.018
2022-11-16T09:45:00.841Z,976.0465
2022-11-16T09:46:00.978Z,976.1605
2022-11-16T09:47:01.127Z,976.018
2022-11-16T09:48:00.274Z,976.0866
2022-11-16T09:49:00.419Z,976.0133
2022-11-16T09:50:03.568Z,976.2355
2022-11-16T09:51:00.718Z,976.095
2022-11-16T09:52:00.869Z,976.093
2022-11-16T09:53:01.008Z,976.0988
2022-11-16T09:54:01.151Z,976.1059
2022-11-16T09:55:00.354Z,976.0618
2022-11-16T09:56:00.470Z,976.1796
2022-11-16T09:57:00.612Z,976.3507
2022-11-16T09:58:00.760Z,976.1097
2022-11-16T09:59:00.905Z,976.2807
2022-11-16T10:00:01.058Z,976.2736
2022-11-16T10:01:01.228Z,976.2956
2022-11-16T10:02:00.324Z,976.2237
2022-11-16T10:03:00.475Z,976.1881
2022-11-16T10:04:00.640Z,976.148
2022-11-16T10:05:00.778Z,976.2006
2022-11-16T10:06:00.924Z,976.1585
2022-11-16T10:07:01.141Z,976.1863
2022-11-16T10:08:01.222Z,976.3146
2022-11-16T10:09:00.373Z,976.1293
2022-11-16T10:10:00.536Z,976.3858
2022-11-16T10:11:00.680Z,976.3094
2022-11-16T10:12:00.800Z,976.417
2022-11-16T10:13:00.958Z,976.4196
2022-11-16T10:14:04.241Z,976.2985
2022-11-16T10:15:01.249Z,976.3206
2022-11-16T10:16:00.420Z,976.3555
2022-11-16T10:17:00.550Z,976.1846
2022-11-16T10:18:00.697Z,976.3885
2022-11-16T10:19:00.853Z,976.2745
2022-11-16T10:20:01.029Z,976.474
2022-11-16T10:21:01.164Z,976.474
2022-11-16T10:22:00.275Z,976.404
2022-11-16T10:23:00.427Z,976.461
2022-11-16T10:24:00.581Z,976.3515
2022-11-16T10:25:00.728Z,976.4635
2022-11-16T10:26:00.885Z,976.3431
2022-11-16T10:27:01.047Z,976.4065
2022-11-16T10:28:01.174Z,976.2983
2022-11-16T10:29:00.327Z,976.319
2022-11-16T10:30:00.476Z,976.4731
2022-11-16T10:31:00.627Z,976.4382
2022-11-16T10:32:00.781Z,976.3553
2022-11-16T10:33:00.935Z,976.5335
2022-11-16T10:34:01.057Z,976.3184
2022-11-16T10:35:01.206Z,976.3876
2022-11-16T10:36:00.339Z,976.4232
2022-11-16T10:37:00.488Z,976.5146
2022-11-16T10:38:00.641Z,976.4077
2022-11-16T10:39:00.775Z,976.4905
2022-11-16T10:40:00.920Z,976.4315
2022-11-16T10:41:01.062Z,976.3259
2022-11-16T10:42:07.112Z,976.3259
2022-11-16T10:43:00.437Z,976.5164
2022-11-16T10:44:00.501Z,976.3745
2022-11-16T10:45:00.654Z,976.3609
2022-11-16T10:46:00.821Z,976.44
2022-11-16T10:47:00.967Z,976.4206
2022-11-16T10:48:01.104Z,976.4776
2022-11-16T10:49:01.246Z,976.3324
2022-11-16T10:50:00.403Z,976.2584
2022-11-16T10:51:00.571Z,976.4333
2022-11-16T10:52:00.690Z,976.2758
2022-11-16T10:53:00.842Z,976.2473
2022-11-16T10:54:01.016Z,976.3043
2022-11-16T10:55:01.169Z,976.2622
2022-11-16T10:56:00.310Z,976.3322
2022-11-16T10:57:00.437Z,976.3522
2022-11-16T10:58:00.593Z,976.1784
2022-11-16T10:59:00.730Z,976.299
2022-11-16T11:00:00.881Z,976.2069
2022-11-16T11:01:01.144Z,976.4922
2022-11-16T11:02:01.185Z,976.3411
2022-11-16T11:03:00.326Z,976.3061
2022-11-16T11:04:00.472Z,976.3872
2022-11-16T11:05:00.629Z,975.9814
2022-11-16T11:06:00.799Z,976.2069
2022-11-16T11:07:01.075Z,975.9832
2022-11-16T11:08:01.060Z,976.101
2022-11-16T11:09:01.204Z,976.2417
2022-11-16T11:10:00.350Z,976.0199
2022-11-16T11:11:00.508Z,976.2169
2022-11-16T11:12:00.642Z,976.2085
2022-11-16T11:13:00.799Z,976.0807
2022-11-16T11:14:00.948Z,976.0522
2022-11-16T11:15:01.098Z,976.1949
2022-11-16T11:16:01.258Z,976.2714
2022-11-16T11:17:00.389Z,976.0658
2022-11-16T11:18:00.533Z,975.9801
2022-11-16T11:19:00.701Z,976.0236
2022-11-16T11:20:00.825Z,976.0742
2022-11-16T11:21:01.005Z,976.0872
2022-11-16T11:22:01.121Z,976.1092
2022-11-16T11:23:01.256Z,976.0963
2022-11-16T11:24:29.368Z,976.0328
2022-11-16T11:25:00.555Z,976.1911
2022-11-16T11:26:00.748Z,976.099
2022-11-16T11:27:00.855Z,976.0983
2022-11-16T11:28:00.999Z,976.0199
2022-11-16T11:29:01.151Z,975.9343
2022-11-16T11:30:00.311Z,976.0899
2022-11-16T11:31:00.469Z,976.0678
2022-11-16T11:32:00.603Z,976.1378
2022-11-16T11:33:00.762Z,976.0172
2022-11-16T11:34:00.901Z,976.0742
2022-11-16T11:35:01.059Z,976.1378
2022-11-16T11:36:01.216Z,976.1442
2022-11-16T11:37:00.352Z,976.0151
2022-11-16T11:38:06.329Z,975.971
2022-11-16T11:39:00.732Z,975.9139
2022-11-16T11:40:00.768Z,976.1552
2022-11-16T11:41:00.946Z,975.9139
2022-11-16T11:42:01.086Z,975.9516
2022-11-16T11:43:01.226Z,975.9288
2022-11-16T11:44:00.360Z,976.096
2022-11-16T11:45:00.548Z,975.9027
2022-11-16T11:46:00.658Z,975.9533
2022-11-16T11:47:55.571Z,975.9754
2022-11-16T11:48:01.005Z,975.9468
2022-11-16T11:49:01.125Z,975.9818
2022-11-16T11:50:01.262Z,975.9533